Time;durP1;ratioP1;P1;durP2;ratioP2;P2;SDS_P1;SDS_P2;PMS_P1;PMS_P2;Temp;Humidity;BMP_temperature;BMP_pressure;BME280_temperature;BME280_humidity;BME280_pressure;Samples;Min_cycle;Max_cycle;Signal;HPM_P1;HPM_P2
2022/12/14 00:01:54;;;;;;;40.25;19.85;;;;;;;-8.67;87.88;100499.69;7398344;19;20019;-74
2022/12/14 00:04:22;;;;;;;39.25;20.15;;;;;;;-8.70;87.78;100500.41;7397823;19;20438;-74
2022/12/14 00:06:51;;;;;;;40.38;20.13;;;;;;;-8.73;87.77;100490.09;7396410;19;20419;-73
2022/12/14 00:09:19;;;;;;;45.25;23.52;;;;;;;-8.74;87.89;100490.88;7395998;19;20018;-72
2022/12/14 00:11:50;;;;;;;39.25;21.55;;;;;;;-8.78;87.90;100488.09;7398083;19;20011;-73
2022/12/14 00:14:19;;;;;;;38.42;19.35;;;;;;;-8.78;87.98;100483.91;7398264;19;20074;-73
2022/12/14 00:16:47;;;;;;;38.22;19.88;;;;;;;-8.80;87.75;100485.47;7396364;19;20043;-73
2022/12/14 00:19:16;;;;;;;34.45;18.02;;;;;;;-8.79;87.96;100487.22;7395368;19;20090;-73
2022/12/14 00:21:44;;;;;;;36.78;18.50;;;;;;;-8.81;87.84;100481.19;7395683;19;20027;-73
2022/12/14 00:24:13;;;;;;;35.50;18.95;;;;;;;-8.82;87.74;100486.19;7395671;19;20018;-74
2022/12/14 00:26:42;;;;;;;77.68;35.92;;;;;;;-8.85;87.70;100477.59;7396631;19;20041;-73
2022/12/14 00:29:13;;;;;;;39.13;19.52;;;;;;;-8.85;87.83;100471.66;7397291;19;20019;-73
2022/12/14 00:31:41;;;;;;;35.03;18.17;;;;;;;-8.87;87.68;100468.16;7397444;19;20022;-72
2022/12/14 00:34:10;;;;;;;32.13;17.83;;;;;;;-8.90;87.79;100463.78;7396263;19;20498;-72
2022/12/14 00:36:38;;;;;;;36.40;17.40;;;;;;;-8.91;87.71;100469.69;7396168;19;20023;-74
2022/12/14 00:39:07;;;;;;;34.90;18.23;;;;;;;-8.93;87.69;100457.66;7396606;19;20544;-73
2022/12/14 00:41:35;;;;;;;31.20;16.98;;;;;;;-8.95;87.69;100457.59;7396293;19;20018;-75
2022/12/14 00:44:04;;;;;;;36.22;19.48;;;;;;;-8.97;87.83;100453.22;7396756;19;20022;-74
2022/12/14 00:46:35;;;;;;;32.00;19.02;;;;;;;-8.96;87.85;100452.41;7395185;19;20015;-75
2022/12/14 00:49:03;;;;;;;31.02;17.25;;;;;;;-8.96;87.85;100449.88;7395249;19;20018;-74
2022/12/14 00:51:32;;;;;;;35.97;17.67;;;;;;;-8.98;87.88;100436.19;7394834;19;20095;-73
2022/12/14 00:54:00;;;;;;;33.80;18.42;;;;;;;-8.97;87.96;100445.59;7396051;19;20391;-73
2022/12/14 00:56:29;;;;;;;39.67;18.88;;;;;;;-8.98;87.86;100438.75;7395306;19;20088;-73
2022/12/14 00:58:57;;;;;;;35.15;18.58;;;;;;;-8.98;87.80;100438.75;7395958;19;20031;-72
2022/12/14 01:01:26;;;;;;;34.70;18.23;;;;;;;-8.99;87.83;100442.97;7394456;19;20078;-72
2022/12/14 01:04:15;;;;;;;32.50;17.95;;;;;;;-9.00;87.76;100451.38;7394192;19;20481;-73
2022/12/14 01:06:44;;;;;;;32.80;17.00;;;;;;;-9.02;87.70;100446.22;7394055;19;20036;-73
2022/12/14 01:09:13;;;;;;;35.90;17.90;;;;;;;-9.04;87.94;100446.94;7395581;19;20553;-75
2022/12/14 01:11:42;;;;;;;34.92;17.45;;;;;;;-9.04;87.86;100457.97;7394209;19;20018;-75
2022/12/14 01:14:12;;;;;;;32.25;17.73;;;;;;;-9.06;87.84;100449.41;7396000;19;20014;-75
2022/12/14 01:16:40;;;;;;;32.80;17.65;;;;;;;-9.07;87.96;100447.66;7394355;19;20021;-74
2022/12/14 01:19:12;;;;;;;30.42;17.25;;;;;;;-9.08;87.98;100438.28;7395768;19;20014;-74
2022/12/14 01:21:41;;;;;;;36.83;17.17;;;;;;;-9.09;87.89;100440.75;7396126;19;20035;-73
2022/12/14 01:24:10;;;;;;;30.70;18.83;;;;;;;-9.11;87.92;100438.13;7395599;19;20423;-73
2022/12/14 01:26:40;;;;;;;34.53;18.42;;;;;;;-9.12;87.96;100431.28;7394008;19;20019;-74
2022/12/14 01:29:10;;;;;;;36.03;18.63;;;;;;;-9.14;87.83;100430.31;7394176;19;20041;-74
2022/12/14 01:31:39;;;;;;;33.72;17.95;;;;;;;-9.12;87.96;100432.94;7395081;19;20484;-74
2022/12/14 01:34:08;;;;;;;35.70;19.17;;;;;;;-9.12;87.95;100425.31;7394991;19;20492;-74
2022/12/14 01:36:40;;;;;;;34.35;16.95;;;;;;;-9.14;88.09;100432.00;7393966;19;20495;-74
2022/12/14 01:39:12;;;;;;;32.92;17.65;;;;;;;-9.18;87.90;100431.84;7396113;19;20035;-71
2022/12/14 01:41:43;;;;;;;37.25;19.20;;;;;;;-9.15;87.99;100431.13;7395855;19;20041;-73
2022/12/14 01:44:41;;;;;;;32.22;17.85;;;;;;;-9.14;88.00;100437.09;7394609;19;20426;-74
2022/12/14 01:47:18;;;;;;;33.22;18.27;;;;;;;-9.16;87.85;100431.94;7393245;19;20026;-74
2022/12/14 01:49:54;;;;;;;40.10;20.15;;;;;;;-9.18;87.96;100430.97;7394735;19;20552;-75
2022/12/14 01:52:30;;;;;;;34.60;18.00;;;;;;;-9.20;87.86;100428.34;7395429;19;20018;-74
2022/12/14 01:55:03;;;;;;;33.25;17.52;;;;;;;-9.22;87.94;100426.53;7401568;19;20509;-74
2022/12/14 01:57:38;;;;;;;34.05;18.10;;;;;;;-9.21;87.94;100428.25;7399575;19;20022;-74
2022/12/14 02:00:22;;;;;;;34.85;19.50;;;;;;;-9.21;87.93;100430.78;7400009;19;20485;-74
2022/12/14 02:02:56;;;;;;;38.03;19.10;;;;;;;-9.21;88.07;100430.78;7402775;19;20028;-74
2022/12/14 02:05:26;;;;;;;35.88;19.35;;;;;;;-9.21;88.01;100433.34;7402611;19;20031;-74
2022/12/14 02:07:58;;;;;;;31.77;18.88;;;;;;;-9.23;88.04;100428.19;7400692;19;20084;-74
2022/12/14 02:10:29;;;;;;;34.50;18.05;;;;;;;-9.21;87.96;100423.16;7401680;19;20502;-74
2022/12/14 02:13:04;;;;;;;35.35;17.17;;;;;;;-9.22;88.04;100429.94;7402831;19;20031;-70
2022/12/14 02:15:33;;;;;;;34.47;18.90;;;;;;;-9.25;88.07;100421.25;7401772;19;20045;-71
2022/12/14 02:18:05;;;;;;;38.33;18.52;;;;;;;-9.22;87.98;100429.06;7399023;19;20018;-70
2022/12/14 02:20:42;;;;;;;35.97;18.98;;;;;;;-9.23;88.01;100427.31;7402208;19;20035;-71
2022/12/14 02:23:49;;;;;;;37.38;18.75;;;;;;;-9.23;88.06;100432.41;7401590;19;20039;-71
2022/12/14 02:26:54;;;;;;;35.40;18.70;;;;;;;-9.22;88.01;100435.00;7398988;19;20031;-70
2022/12/14 02:29:48;;;;;;;36.60;18.98;;;;;;;-9.24;88.01;100418.78;7398835;19;20031;-71
2022/12/14 02:32:29;;;;;;;39.35;20.40;;;;;;;-9.23;87.93;100423.09;7400876;19;20022;-71
2022/12/14 02:35:02;;;;;;;47.08;23.73;;;;;;;-9.23;88.06;100418.00;7401660;19;20018;-71
2022/12/14 02:37:39;;;;;;;52.33;23.40;;;;;;;-9.25;88.03;100419.63;7398099;19;20516;-72
2022/12/14 02:40:22;;;;;;;43.05;22.45;;;;;;;-9.27;88.03;100412.72;7401425;19;20035;-71
2022/12/14 02:43:02;;;;;;;42.92;21.60;;;;;;;-9.29;87.98;100409.19;7401434;19;20018;-71
2022/12/14 02:45:41;;;;;;;39.85;22.10;;;;;;;-9.34;87.85;100402.22;7400526;19;21793;-72
2022/12/14 02:48:15;;;;;;;44.97;22.42;;;;;;;-9.34;87.88;100408.94;7400092;19;20083;-71
2022/12/14 02:50:47;;;;;;;42.50;21.02;;;;;;;-9.37;88.04;100409.66;7400395;19;20443;-72
2022/12/14 02:53:22;;;;;;;45.47;22.55;;;;;;;-9.39;87.88;100401.09;7400897;19;20018;-71
2022/12/14 02:55:53;;;;;;;40.70;21.00;;;;;;;-9.41;87.89;100396.72;7400230;19;20246;-71
2022/12/14 02:58:26;;;;;;;43.08;22.95;;;;;;;-9.43;87.98;100394.09;7400102;19;20083;-70
2022/12/14 03:00:58;;;;;;;42.50;22.17;;;;;;;-9.43;87.79;100393.22;7398816;19;20019;-71
2022/12/14 03:03:27;;;;;;;41.58;22.20;;;;;;;-9.46;87.78;100387.97;7399962;19;20481;-70
2022/12/14 03:06:00;;;;;;;42.25;21.77;;;;;;;-9.47;87.83;100399.81;7399049;19;20090;-72
2022/12/14 03:08:31;;;;;;;44.30;21.98;;;;;;;-9.47;87.93;100396.41;7399184;19;20014;-71
2022/12/14 03:11:04;;;;;;;38.35;18.88;;;;;;;-9.47;87.91;100391.31;7397812;19;20028;-72
2022/12/14 03:13:37;;;;;;;35.90;18.60;;;;;;;-9.50;87.90;100386.97;7399554;19;20518;-71
2022/12/14 03:16:14;;;;;;;39.58;19.35;;;;;;;-9.51;88.02;100390.28;7399125;19;20022;-71
2022/12/14 03:18:47;;;;;;;36.00;18.40;;;;;;;-9.53;87.81;100391.84;7400009;19;20011;-71
2022/12/14 03:21:20;;;;;;;39.47;18.50;;;;;;;-9.50;87.92;100389.50;7400029;19;20037;-71
2022/12/14 03:23:51;;;;;;;28.83;15.80;;;;;;;-9.51;87.88;100386.06;7400119;19;20022;-70
2022/12/14 03:26:25;;;;;;;37.80;18.67;;;;;;;-9.50;87.80;100376.78;7399768;19;20043;-70
2022/12/14 03:28:59;;;;;;;38.30;18.08;;;;;;;-9.50;87.74;100376.78;7401236;19;20015;-71
2022/12/14 03:31:35;;;;;;;35.95;18.05;;;;;;;-9.52;87.83;100376.69;7399971;19;20032;-71
2022/12/14 03:34:07;;;;;;;34.55;17.80;;;;;;;-9.52;87.73;100379.22;7399142;19;20070;-70
2022/12/14 03:36:42;;;;;;;33.33;18.08;;;;;;;-9.53;87.66;100374.06;7396332;19;20011;-70
2022/12/14 03:39:20;;;;;;;36.20;19.02;;;;;;;-9.54;87.65;100367.25;7401352;19;20037;-70
2022/12/14 03:41:58;;;;;;;33.38;19.10;;;;;;;-9.54;87.76;100375.75;7399336;19;20015;-71
2022/12/14 03:44:36;;;;;;;37.03;19.23;;;;;;;-9.54;87.72;100368.13;7397578;19;20018;-71
2022/12/14 03:47:16;;;;;;;37.53;20.08;;;;;;;-9.53;87.66;100371.53;7397097;19;20035;-70
2022/12/14 03:49:55;;;;;;;37.13;19.27;;;;;;;-9.54;87.83;100368.13;7397126;19;20022;-71
2022/12/14 03:52:30;;;;;;;37.30;19.23;;;;;;;-9.53;87.72;100358.84;7398340;19;20027;-71
2022/12/14 03:55:08;;;;;;;35.25;17.90;;;;;;;-9.53;87.77;100361.38;7398236;19;20418;-70
2022/12/14 03:57:49;;;;;;;43.22;21.10;;;;;;;-9.53;87.74;100361.38;7399007;19;20165;-71
2022/12/14 04:00:22;;;;;;;36.50;18.73;;;;;;;-9.53;87.73;100349.56;7395979;19;20033;-71
2022/12/14 04:03:00;;;;;;;37.40;18.30;;;;;;;-9.52;87.81;100347.88;7398088;19;20492;-71
2022/12/14 04:05:36;;;;;;;35.17;18.20;;;;;;;-9.52;87.94;100343.66;7396262;19;20090;-70
2022/12/14 04:08:09;;;;;;;35.47;19.08;;;;;;;-9.49;87.85;100340.41;7397580;19;20035;-70
2022/12/14 04:19:10;;;;;;;38.22;19.10;;;;;;;-9.38;87.75;100339.31;7397777;19;20007;-71
2022/12/14 04:21:45;;;;;;;37.53;20.08;;;;;;;-9.37;87.85;100335.13;7398093;19;20070;-71
2022/12/14 04:27:09;;;;;;;39.13;20.60;;;;;;;-9.33;87.84;100330.25;7395818;19;20035;-70
2022/12/14 04:32:24;;;;;;;39.25;19.13;;;;;;;-9.30;87.99;100318.50;7397392;19;19923;-71
2022/12/14 04:34:59;;;;;;;38.17;20.38;;;;;;;-9.28;87.88;100316.94;7397528;19;20037;-71
2022/12/14 04:37:30;;;;;;;37.08;20.40;;;;;;;-9.28;87.86;100316.94;7395140;19;20018;-71
2022/12/14 04:40:04;;;;;;;35.88;20.17;;;;;;;-9.29;88.19;100310.09;7396613;19;20024;-71
2022/12/14 04:42:36;;;;;;;35.92;20.80;;;;;;;-9.25;88.04;100312.88;7396930;19;20035;-71
2022/12/14 04:45:11;;;;;;;42.33;20.88;;;;;;;-9.24;88.07;100311.22;7396819;19;20431;-69
2022/12/14 04:47:45;;;;;;;44.28;22.92;;;;;;;-9.24;87.99;100303.59;7394475;19;20410;-70
2022/12/14 04:50:24;;;;;;;40.17;20.88;;;;;;;-9.20;88.11;100300.41;7395463;19;20035;-70
2022/12/14 04:52:56;;;;;;;34.90;20.58;;;;;;;-9.20;88.07;100293.66;7396549;19;20027;-71
2022/12/14 04:55:30;;;;;;;42.10;23.52;;;;;;;-9.18;88.06;100289.50;7396547;19;20018;-70
2022/12/14 04:58:04;;;;;;;41.97;21.67;;;;;;;-9.18;88.05;100279.34;7396463;19;20022;-70
2022/12/14 05:00:37;;;;;;;41.33;21.20;;;;;;;-9.16;88.05;100274.38;7394310;19;20477;-70
2022/12/14 05:03:23;;;;;;;41.20;20.23;;;;;;;-9.16;88.03;100279.44;7396496;19;20018;-71
2022/12/14 05:06:05;;;;;;;42.22;20.58;;;;;;;-9.16;88.19;100276.91;7394620;19;20477;-71
2022/12/14 05:08:50;;;;;;;37.22;20.80;;;;;;;-9.16;88.22;100271.81;7395630;19;20035;-70
2022/12/14 05:11:26;;;;;;;41.20;21.65;;;;;;;-9.16;88.11;100274.38;7395847;19;20066;-69
2022/12/14 05:13:54;;;;;;;41.22;21.80;;;;;;;-9.17;88.24;100267.53;7395828;19;20022;-71
2022/12/14 05:16:25;;;;;;;47.92;24.33;;;;;;;-9.17;88.16;100267.53;7393759;19;20078;-69
2022/12/14 05:18:54;;;;;;;42.10;22.70;;;;;;;-9.17;88.07;100270.06;7394011;19;20014;-71
2022/12/14 05:24:07;;;;;;;42.00;22.95;;;;;;;-9.18;88.32;100260.69;7395728;19;20086;-71
2022/12/14 05:26:36;;;;;;;46.35;23.55;;;;;;;-9.15;88.25;100257.44;7393867;19;20039;-71
2022/12/14 05:29:04;;;;;;;48.15;24.77;;;;;;;-9.21;87.78;100251.25;7390337;19;20074;-70
2022/12/14 05:31:33;;;;;;;45.80;23.92;;;;;;;-9.27;87.83;100243.31;7394993;19;20045;-70
2022/12/14 05:34:01;;;;;;;40.47;24.05;;;;;;;-9.34;87.90;100242.16;7395071;19;20078;-71
2022/12/14 05:36:32;;;;;;;46.00;25.45;;;;;;;-9.40;87.87;100236.75;7393892;19;20018;-71
2022/12/14 05:39:01;;;;;;;43.58;23.90;;;;;;;-9.45;87.71;100237.31;7394565;19;20014;-71
2022/12/14 05:41:29;;;;;;;38.17;20.95;;;;;;;-9.51;87.83;100242.97;7392805;19;20035;-71
2022/12/14 05:43:57;;;;;;;42.38;21.17;;;;;;;-9.55;87.99;100244.47;7394476;19;20439;-71
2022/12/14 05:46:26;;;;;;;43.25;21.10;;;;;;;-9.61;87.85;100239.06;7393378;19;20047;-71
2022/12/14 05:48:54;;;;;;;32.65;19.38;;;;;;;-9.63;87.96;100232.16;7394048;19;20092;-70
2022/12/14 05:51:23;;;;;;;38.05;20.52;;;;;;;-9.74;87.88;100224.88;7393022;19;20035;-71
2022/12/14 05:53:54;;;;;;;40.95;20.00;;;;;;;-9.73;88.00;100229.16;7394910;19;20022;-71
2022/12/14 05:56:23;;;;;;;41.35;21.52;;;;;;;-9.73;88.00;100229.16;7392536;19;20481;-71
2022/12/14 05:58:52;;;;;;;44.45;21.75;;;;;;;-9.74;87.87;100229.06;7394489;19;20018;-70
2022/12/14 06:01:20;;;;;;;39.92;20.92;;;;;;;-9.76;88.07;100223.06;7391009;19;20010;-70
2022/12/14 06:03:49;;;;;;;40.40;21.85;;;;;;;-9.78;88.02;100224.63;7392539;19;20026;-71
2022/12/14 06:06:18;;;;;;;37.83;22.02;;;;;;;-9.78;88.03;100217.03;7392011;19;20023;-71
2022/12/14 06:08:47;;;;;;;46.28;21.95;;;;;;;-9.77;88.10;100222.16;7392579;19;20418;-71
2022/12/14 06:11:20;;;;;;;42.28;21.73;;;;;;;-9.77;88.04;100218.75;7396210;19;20022;-71
2022/12/14 06:13:49;;;;;;;42.77;21.03;;;;;;;-9.76;88.18;100231.53;7394155;19;20035;-70
2022/12/14 06:16:19;;;;;;;43.47;22.88;;;;;;;-9.79;87.99;100217.81;7392164;19;20035;-71
2022/12/14 06:18:50;;;;;;;39.63;22.95;;;;;;;-9.77;88.20;100217.09;7393333;19;20027;-70
2022/12/14 06:21:21;;;;;;;45.50;23.67;;;;;;;-9.76;87.99;100213.75;7392562;19;20027;-70
2022/12/14 06:23:49;;;;;;;45.33;23.50;;;;;;;-9.77;87.98;100214.56;7390902;19;20039;-71
2022/12/14 06:26:20;;;;;;;45.00;21.58;;;;;;;-9.76;88.16;100218.84;7392250;19;20022;-71
2022/12/14 06:28:49;;;;;;;42.60;22.42;;;;;;;-9.75;88.19;100219.72;7393363;19;20023;-71
2022/12/14 06:31:19;;;;;;;43.25;23.30;;;;;;;-9.76;88.22;100218.84;7393073;19;20035;-70
2022/12/14 06:33:48;;;;;;;42.83;22.52;;;;;;;-9.75;88.20;100214.66;7392705;19;20502;-71
2022/12/14 06:36:21;;;;;;;41.15;21.58;;;;;;;-9.74;88.26;100212.19;7390381;19;20015;-71
2022/12/14 06:38:49;;;;;;;35.58;19.98;;;;;;;-9.73;88.21;100206.31;7393250;19;20023;-71
2022/12/14 06:41:21;;;;;;;55.17;23.98;;;;;;;-9.75;88.27;100191.81;7400750;19;20027;-71
2022/12/14 06:43:50;;;;;;;43.40;22.50;;;;;;;-9.74;88.28;100194.41;7397153;19;20098;-70
2022/12/14 06:46:20;;;;;;;40.08;20.40;;;;;;;-9.74;88.22;100191.88;7399127;19;20018;-71
2022/12/14 06:48:51;;;;;;;39.90;21.05;;;;;;;-9.74;88.16;100193.53;7399988;19;20396;-71
2022/12/14 06:51:21;;;;;;;41.38;22.38;;;;;;;-9.76;88.21;100195.13;7400815;19;20031;-69
2022/12/14 06:53:52;;;;;;;43.22;22.08;;;;;;;-9.77;88.34;100189.16;7399685;19;20014;-70
2022/12/14 06:56:24;;;;;;;43.85;21.90;;;;;;;-9.79;88.24;100180.63;7399751;19;20029;-71
2022/12/14 06:58:52;;;;;;;42.20;21.45;;;;;;;-9.78;88.31;100177.28;7399951;19;20022;-71
2022/12/14 07:01:22;;;;;;;45.03;22.63;;;;;;;-9.80;88.25;100173.78;7396648;19;20016;-71
2022/12/14 07:03:52;;;;;;;41.75;22.35;;;;;;;-9.83;88.26;100161.81;7396594;19;20414;-70
2022/12/14 07:06:21;;;;;;;42.88;23.30;;;;;;;-9.85;88.26;100160.84;7396993;19;20039;-71
2022/12/14 07:08:50;;;;;;;42.67;23.55;;;;;;;-9.85;88.45;100171.00;7399193;19;20031;-71
2022/12/14 07:11:19;;;;;;;43.30;23.08;;;;;;;-9.85;88.35;100167.59;7398929;19;20037;-71
2022/12/14 07:13:50;;;;;;;44.35;23.23;;;;;;;-9.86;88.46;100160.78;7397987;19;20018;-72
2022/12/14 07:16:22;;;;;;;42.63;23.67;;;;;;;-9.85;88.59;100157.44;7399369;19;20484;-72
2022/12/14 07:18:50;;;;;;;45.53;23.17;;;;;;;-9.84;88.40;100157.53;7399550;19;20417;-71
2022/12/14 07:21:21;;;;;;;47.40;22.95;;;;;;;-9.85;88.52;100150.69;7398986;19;20090;-71
2022/12/14 07:23:51;;;;;;;49.75;23.70;;;;;;;-9.84;88.54;100147.38;7395607;19;20435;-71
2022/12/14 07:26:22;;;;;;;41.15;22.05;;;;;;;-9.83;88.44;100143.16;7395991;19;20014;-70
2022/12/14 07:29:00;;;;;;;50.88;25.00;;;;;;;-9.82;88.36;100144.91;7398293;19;20410;-71
2022/12/14 07:31:30;;;;;;;46.55;24.00;;;;;;;-9.81;88.52;100144.09;7398388;19;20017;-71
2022/12/14 07:34:01;;;;;;;41.35;21.52;;;;;;;-9.82;88.44;100144.91;7398404;19;20039;-72
2022/12/14 07:36:31;;;;;;;57.70;26.05;;;;;;;-9.79;88.87;100150.16;7396134;19;20391;-69
2022/12/14 07:39:00;;;;;;;57.10;27.70;;;;;;;-9.68;89.74;100154.09;7399196;19;20011;-71
2022/12/14 07:41:31;;;;;;;61.63;30.42;;;;;;;-9.63;90.51;100130.59;7398022;19;20430;-71
2022/12/14 07:44:02;;;;;;;58.95;29.58;;;;;;;-9.47;90.22;100134.78;7398426;19;20018;-71
2022/12/14 07:46:32;;;;;;;54.70;30.23;;;;;;;-9.40;89.53;100135.16;7396697;19;20190;-71
2022/12/14 07:49:01;;;;;;;50.72;27.10;;;;;;;-9.38;89.18;100135.22;7398184;19;20014;-70
2022/12/14 07:51:32;;;;;;;52.92;27.02;;;;;;;-9.39;88.93;100134.34;7393615;19;20410;-71
2022/12/14 07:54:02;;;;;;;47.63;24.85;;;;;;;-9.37;88.70;100137.81;7398419;19;20090;-71
2022/12/14 07:56:39;;;;;;;49.17;25.75;;;;;;;-9.34;88.68;100137.09;7396621;19;20015;-71
2022/12/14 07:59:14;;;;;;;54.95;25.73;;;;;;;-9.35;88.54;100138.78;7398411;19;20022;-70
2022/12/14 08:01:43;;;;;;;45.00;23.98;;;;;;;-9.36;88.53;100137.03;7395848;19;20490;-72
2022/12/14 08:04:14;;;;;;;42.67;24.70;;;;;;;-9.37;88.42;100130.19;7397982;19;20018;-72
2022/12/14 08:06:43;;;;;;;43.47;23.90;;;;;;;-9.39;88.39;100133.47;7396419;19;20027;-70
2022/12/14 08:09:14;;;;;;;45.30;24.55;;;;;;;-9.38;88.37;100136.06;7397552;19;20019;-71
2022/12/14 08:11:43;;;;;;;45.60;24.67;;;;;;;-9.40;88.42;100129.16;7396005;19;20078;-71
2022/12/14 08:14:18;;;;;;;41.10;23.98;;;;;;;-9.40;88.29;100139.34;7395485;19;20019;-71
2022/12/14 08:16:48;;;;;;;52.20;25.25;;;;;;;-9.39;88.32;100143.63;7396621;19;20354;-70
2022/12/14 08:19:17;;;;;;;48.97;26.45;;;;;;;-9.40;88.35;100145.31;7397871;19;20019;-70
2022/12/14 08:21:46;;;;;;;46.80;25.90;;;;;;;-9.41;88.23;100141.00;7397736;19;20023;-71
2022/12/14 08:24:16;;;;;;;47.70;27.23;;;;;;;-9.42;88.38;100133.31;7397704;19;20018;-71
2022/12/14 08:26:44;;;;;;;49.88;26.67;;;;;;;-9.42;88.46;100130.78;7396145;19;20552;-71
2022/12/14 08:29:16;;;;;;;46.10;25.88;;;;;;;-9.42;88.44;100131.66;7396865;19;20018;-70
2022/12/14 08:31:44;;;;;;;53.58;26.17;;;;;;;-9.45;88.26;100125.53;7399069;19;20024;-70
2022/12/14 08:34:14;;;;;;;48.10;25.13;;;;;;;-9.42;88.31;100126.56;7394789;19;20035;-70
2022/12/14 08:36:43;;;;;;;49.95;25.67;;;;;;;-9.43;88.30;100122.28;7394999;19;20011;-70
2022/12/14 08:39:12;;;;;;;47.58;25.77;;;;;;;-9.42;88.40;100120.63;7396134;19;20423;-70
2022/12/14 08:41:40;;;;;;;42.90;23.67;;;;;;;-9.42;88.29;100121.47;7396770;19;20390;-71
2022/12/14 08:44:09;;;;;;;49.25;25.98;;;;;;;-9.44;88.33;100118.00;7395339;19;20106;-72
2022/12/14 08:46:41;;;;;;;47.05;26.45;;;;;;;-9.41;88.16;100114.75;7394644;19;20018;-70
2022/12/14 08:49:09;;;;;;;48.85;26.85;;;;;;;-9.42;88.20;100116.41;7394493;19;20511;-71
2022/12/14 08:51:39;;;;;;;52.13;28.40;;;;;;;-9.41;88.25;100112.22;7394446;19;20119;-70
2022/12/14 08:54:07;;;;;;;53.67;28.08;;;;;;;-9.41;88.11;100105.44;7394299;19;20011;-71
2022/12/14 08:56:36;;;;;;;57.22;29.67;;;;;;;-9.39;88.20;100105.50;7395181;19;20524;-71
2022/12/14 08:59:04;;;;;;;51.10;27.38;;;;;;;-9.37;88.11;100103.94;7396447;19;20022;-70
2022/12/14 09:01:33;;;;;;;57.25;28.90;;;;;;;-9.37;88.09;100094.63;7395017;19;20014;-71
2022/12/14 09:04:07;;;;;;;55.55;29.23;;;;;;;-9.31;88.32;100090.63;7396240;19;20035;-70
2022/12/14 09:06:36;;;;;;;;;;;;;;;-9.28;88.01;100093.34;7395695;19;20083;-70
2022/12/14 09:09:05;;;;;;;44.90;23.52;;;;;;;-9.27;88.15;100084.94;7396633;19;19939;-70
2022/12/14 09:11:34;;;;;;;43.70;23.08;;;;;;;-9.21;88.36;100088.63;7393865;19;20074;-70
2022/12/14 09:14:02;;;;;;;43.00;24.38;;;;;;;-9.18;88.10;100087.88;7393850;19;20018;-70
2022/12/14 09:16:31;;;;;;;40.35;23.67;;;;;;;-9.13;88.29;100083.03;7393938;19;20432;-70
2022/12/14 09:18:59;;;;;;;44.13;22.92;;;;;;;-9.09;88.20;100084.91;7395648;19;20078;-70
2022/12/14 09:21:30;;;;;;;41.83;23.90;;;;;;;-9.04;88.22;100084.31;7395548;19;20540;-70
2022/12/14 09:23:59;;;;;;;38.78;22.50;;;;;;;-8.98;88.28;100077.75;7395073;19;20410;-70
2022/12/14 09:26:28;;;;;;;46.42;22.75;;;;;;;-8.94;88.13;100075.44;7394328;19;20022;-70
2022/12/14 09:28:58;;;;;;;43.72;22.50;;;;;;;-8.88;87.97;100070.66;7395282;19;20021;-71
2022/12/14 09:31:28;;;;;;;43.15;23.23;;;;;;;-8.82;88.02;100069.19;7393883;19;20035;-71
2022/12/14 09:33:58;;;;;;;44.65;24.85;;;;;;;-8.78;88.20;100069.41;7395733;19;20081;-71
2022/12/14 09:36:30;;;;;;;45.35;24.33;;;;;;;-8.73;88.21;100067.94;7393961;19;20045;-70
2022/12/14 09:38:59;;;;;;;36.45;22.50;;;;;;;-8.68;88.34;100063.03;7396219;19;20406;-72
2022/12/14 09:41:44;;;;;;;41.90;23.65;;;;;;;-8.61;88.24;100056.56;7394448;19;20556;-71
2022/12/14 09:44:20;;;;;;;46.50;25.15;;;;;;;-8.55;88.31;100050.06;7392811;19;20481;-71
2022/12/14 09:46:57;;;;;;;43.45;25.58;;;;;;;-8.48;88.28;100051.19;7394790;19;20032;-70
2022/12/14 09:49:29;;;;;;;44.20;25.25;;;;;;;-8.43;88.34;100044.59;7394773;19;20036;-68
2022/12/14 09:52:03;;;;;;;37.38;21.75;;;;;;;-8.35;88.38;100038.19;7392790;19;20019;-69
2022/12/14 09:54:34;;;;;;;39.10;23.92;;;;;;;-8.26;88.46;100034.31;7393805;19;20031;-69
2022/12/14 09:57:08;;;;;;;40.97;24.92;;;;;;;-8.21;88.29;100028.59;7392697;19;20015;-68
2022/12/14 09:59:37;;;;;;;52.58;27.80;;;;;;;-8.13;88.43;100028.06;7393930;19;20502;-69
2022/12/14 10:02:53;;;;;;;43.65;23.75;;;;;;;-8.02;88.49;100027.69;7391675;19;20021;-69
2022/12/14 10:05:33;;;;;;;45.38;23.25;;;;;;;-7.97;88.51;100022.78;7393748;19;20620;-69
2022/12/14 10:08:15;;;;;;;37.03;21.90;;;;;;;-7.87;88.51;100014.72;7394637;19;20018;-69
2022/12/14 10:10:52;;;;;;;39.40;21.45;;;;;;;-7.80;88.42;100013.28;7392866;19;20425;-69
2022/12/14 10:13:38;;;;;;;40.78;22.55;;;;;;;-7.71;88.34;100007.69;7393777;19;20082;-68
2022/12/14 10:16:16;;;;;;;43.38;24.33;;;;;;;-7.65;88.67;100001.97;7399569;19;20022;-69
2022/12/14 10:19:01;;;;;;;37.83;22.80;;;;;;;-7.56;88.49;100002.34;7401073;19;20364;-70
2022/12/14 10:21:40;;;;;;;43.50;23.55;;;;;;;-7.51;88.70;99990.63;7401586;19;20078;-69
2022/12/14 10:24:17;;;;;;;41.75;23.73;;;;;;;-7.40;88.36;99996.16;7400886;19;20524;-69
2022/12/14 10:26:52;;;;;;;38.75;23.60;;;;;;;-7.33;88.76;99987.91;7399615;19;20022;-69
2022/12/14 10:29:24;;;;;;;;;;;;;;;-7.27;88.42;99985.59;7402526;19;20070;-69
2022/12/14 10:32:01;;;;;;;36.65;22.67;;;;;;;-7.20;88.65;99974.84;7399178;19;19940;-69
2022/12/14 10:34:31;;;;;;;67.07;32.92;;;;;;;-7.12;88.54;99967.47;7397967;19;20015;-69
2022/12/14 10:37:13;;;;;;;45.92;26.60;;;;;;;-7.05;88.73;99964.34;7397069;19;20006;-69
2022/12/14 10:39:58;;;;;;;41.70;23.42;;;;;;;-6.95;88.66;99967.22;7399816;19;20011;-68
2022/12/14 10:42:33;;;;;;;39.58;22.45;;;;;;;-6.87;88.77;99976.91;7400328;19;20086;-69
2022/12/14 10:45:14;;;;;;;41.03;22.27;;;;;;;-6.78;88.81;99976.34;7398139;19;20018;-70
2022/12/14 10:47:46;;;;;;;35.03;21.50;;;;;;;-6.69;88.67;99963.06;7400243;19;20019;-69
2022/12/14 10:50:23;;;;;;;36.83;22.90;;;;;;;-6.59;88.69;99962.56;7397354;19;20078;-69
2022/12/14 10:52:55;;;;;;;39.83;21.35;;;;;;;-6.51;88.89;99954.31;7400566;19;20011;-70
2022/12/14 10:55:33;;;;;;;36.45;21.45;;;;;;;-6.41;88.76;99956.38;7399997;19;20022;-69
2022/12/14 10:58:02;;;;;;;35.33;21.20;;;;;;;-6.35;88.57;99946.38;7400309;19;20527;-69
2022/12/14 11:00:31;;;;;;;34.58;21.98;;;;;;;-6.25;88.87;99934.78;7399262;19;20025;-69
2022/12/14 11:02:59;;;;;;;35.17;20.38;;;;;;;-6.18;88.42;99936.69;7399527;19;20019;-68
2022/12/14 11:05:36;;;;;;;36.78;22.75;;;;;;;-6.09;88.54;99934.47;7398906;19;20035;-69
2022/12/14 11:08:05;;;;;;;36.05;20.33;;;;;;;-6.02;88.48;99935.53;7399220;19;20018;-69
2022/12/14 11:10:38;;;;;;;34.22;21.95;;;;;;;-5.95;88.64;99939.09;7398277;19;20014;-69
2022/12/14 11:13:08;;;;;;;37.03;21.15;;;;;;;-5.88;88.52;99938.47;7399064;19;20015;-71
2022/12/14 11:15:38;;;;;;;35.65;23.15;;;;;;;-5.82;88.17;99932.72;7399066;19;20036;-71
2022/12/14 11:18:24;;;;;;;39.53;22.27;;;;;;;-5.75;88.34;99934.63;7399948;19;20015;-69
2022/12/14 11:20:55;;;;;;;34.83;19.83;;;;;;;-5.69;88.66;99923.75;7398929;19;20014;-69
2022/12/14 11:23:28;;;;;;;34.55;20.85;;;;;;;-5.62;88.60;99925.66;7399032;19;20037;-70
2022/12/14 11:26:00;;;;;;;38.95;22.58;;;;;;;-5.56;88.49;99920.72;7395968;19;20082;-70
2022/12/14 11:28:32;;;;;;;39.88;21.48;;;;;;;-5.50;88.50;99915.78;7398444;19;20014;-69
2022/12/14 11:31:04;;;;;;;44.17;24.30;;;;;;;-5.43;88.79;99917.72;7397043;19;20427;-69
2022/12/14 11:33:39;;;;;;;34.00;21.42;;;;;;;-5.36;88.22;99912.78;7397411;19;20362;-69
2022/12/14 11:36:09;;;;;;;36.35;22.40;;;;;;;-5.31;88.51;99906.97;7397071;19;20024;-69
2022/12/14 11:38:38;;;;;;;34.13;22.08;;;;;;;-5.23;88.61;99912.31;7397786;19;20090;-68
2022/12/14 11:41:09;;;;;;;38.30;21.38;;;;;;;-5.17;88.65;99904.81;7397223;19;20101;-68
2022/12/14 11:43:38;;;;;;;44.30;22.33;;;;;;;-5.10;88.49;99916.09;7397752;19;20485;-69
2022/12/14 11:46:07;;;;;;;35.53;21.80;;;;;;;-5.05;88.61;99906.84;7396505;19;20023;-69
2022/12/14 11:48:38;;;;;;;39.40;22.48;;;;;;;-5.00;88.56;99907.84;7395250;19;20481;-70
2022/12/14 11:51:14;;;;;;;33.13;20.52;;;;;;;-4.95;88.30;99913.09;7397108;19;20366;-69
2022/12/14 11:53:43;;;;;;;31.45;20.90;;;;;;;-4.90;88.50;99916.66;7397856;19;20031;-69